createdAt,value
2018-04-07T00:01:58.827Z,3.00
2018-04-07T00:04:26.714Z,3.40
2018-04-07T00:06:53.203Z,2.50
2018-04-07T00:09:19.631Z,2.60
2018-04-07T00:11:46.066Z,2.50
2018-04-07T00:14:12.493Z,3.03
2018-04-07T00:16:39.732Z,2.90
2018-04-07T00:19:06.150Z,2.67
2018-04-07T00:21:32.578Z,3.13
2018-04-07T00:23:59.040Z,3.60
2018-04-07T00:26:25.510Z,3.27
2018-04-07T00:28:51.963Z,3.33
2018-04-07T00:31:19.138Z,3.30
2018-04-07T00:33:45.559Z,2.90
2018-04-07T00:36:12.045Z,2.87
2018-04-07T00:38:38.598Z,2.97
2018-04-07T00:41:05.120Z,3.00
2018-04-07T00:43:31.592Z,3.13
2018-04-07T00:45:58.095Z,2.67
2018-04-07T00:48:34.109Z,2.97
2018-04-07T00:51:06.709Z,2.53
2018-04-07T00:53:33.147Z,3.40
2018-04-07T00:55:59.571Z,3.20
2018-04-07T00:58:26.045Z,3.33
2018-04-07T01:00:52.514Z,3.50
2018-04-07T01:03:19.002Z,2.60
2018-04-07T01:05:45.426Z,2.87
2018-04-07T01:08:12.562Z,2.43
2018-04-07T01:10:38.961Z,3.30
2018-04-07T01:13:05.528Z,3.57
2018-04-07T01:15:31.945Z,2.67
2018-04-07T01:17:58.333Z,3.03
2018-04-07T01:20:25.484Z,3.47
2018-04-07T01:22:52.674Z,3.27
2018-04-07T01:25:19.161Z,2.73
2018-04-07T01:27:45.562Z,2.80
2018-04-07T01:30:11.974Z,3.20
2018-04-07T01:32:38.421Z,3.20
2018-04-07T01:35:05.618Z,3.67
2018-04-07T01:37:32.017Z,2.90
2018-04-07T01:39:58.447Z,3.30
2018-04-07T01:42:24.882Z,2.97
2018-04-07T01:44:51.351Z,3.20
2018-04-07T01:47:18.581Z,3.03
2018-04-07T01:49:44.981Z,3.00
2018-04-07T01:52:11.390Z,3.07
2018-04-07T01:54:37.815Z,3.20
2018-04-07T01:57:04.252Z,3.10
2018-04-07T01:59:30.687Z,3.00
2018-04-07T02:01:57.071Z,3.27
2018-04-07T02:04:23.568Z,2.77
2018-04-07T02:06:50.004Z,3.67
2018-04-07T02:09:16.410Z,3.53
2018-04-07T02:11:42.862Z,3.17
2018-04-07T02:14:09.326Z,3.20
2018-04-07T02:16:36.582Z,3.40
2018-04-07T02:19:02.964Z,4.73
2018-04-07T02:21:29.346Z,2.70
2018-04-07T02:23:55.777Z,3.00
2018-04-07T02:26:22.210Z,2.70
2018-04-07T02:28:48.659Z,2.97
2018-04-07T02:31:15.138Z,3.40
2018-04-07T02:33:41.607Z,2.60
2018-04-07T02:36:08.081Z,3.13
2018-04-07T02:38:34.507Z,3.27
2018-04-07T02:41:00.955Z,3.10
2018-04-07T02:43:27.385Z,3.50
2018-04-07T02:45:53.812Z,3.07
2018-04-07T02:48:20.231Z,3.30
2018-04-07T02:50:47.443Z,3.17
2018-04-07T02:53:13.876Z,2.80
2018-04-07T02:55:40.271Z,3.37
2018-04-07T02:58:06.743Z,2.80
2018-04-07T03:00:33.184Z,3.70
2018-04-07T03:02:59.631Z,3.60
2018-04-07T03:05:26.106Z,3.40
2018-04-07T03:07:52.526Z,2.90
2018-04-07T03:10:19.004Z,3.57
2018-04-07T03:12:45.562Z,3.70
2018-04-07T03:15:13.465Z,3.43
2018-04-07T03:17:39.972Z,2.67
2018-04-07T03:20:06.509Z,3.20
2018-04-07T03:22:32.945Z,3.27
2018-04-07T03:24:59.420Z,3.47
2018-04-07T03:27:27.992Z,3.13
2018-04-07T03:29:54.454Z,3.00
2018-04-07T03:32:20.925Z,2.93
2018-04-07T03:34:48.941Z,3.47
2018-04-07T03:37:16.084Z,3.67
2018-04-07T03:39:42.474Z,3.53
2018-04-07T03:42:08.908Z,3.23
2018-04-07T03:44:35.311Z,4.30
2018-04-07T03:47:02.563Z,3.73
2018-04-07T03:49:28.975Z,3.90
2018-04-07T03:51:56.878Z,3.43
2018-04-07T03:54:23.393Z,3.30
2018-04-07T03:56:49.866Z,4.30
2018-04-07T03:59:16.283Z,3.47
2018-04-07T04:01:42.702Z,3.33
2018-04-07T04:04:09.122Z,3.50
2018-04-07T04:06:36.283Z,2.93
2018-04-07T04:09:02.786Z,3.23
2018-04-07T04:11:29.215Z,3.80
2018-04-07T04:13:55.696Z,3.70
2018-04-07T04:16:23.652Z,3.50
2018-04-07T04:18:50.238Z,3.37
2018-04-07T04:21:17.435Z,3.83
2018-04-07T04:23:43.944Z,3.80
2018-04-07T04:26:10.522Z,3.73
2018-04-07T04:28:37.700Z,3.97
2018-04-07T04:31:06.094Z,3.93
2018-04-07T04:33:33.350Z,4.70
2018-04-07T04:35:59.957Z,3.80
2018-04-07T04:38:26.488Z,4.00
2018-04-07T04:40:53.836Z,4.30
2018-04-07T04:43:21.629Z,4.07
2018-04-07T04:45:48.187Z,4.97
2018-04-07T04:48:14.914Z,3.57
2018-04-07T04:50:41.482Z,3.33
2018-04-07T04:53:08.003Z,4.33
2018-04-07T04:55:35.290Z,3.70
2018-04-07T04:58:01.810Z,4.23
2018-04-07T05:00:29.078Z,4.43
2018-04-07T05:02:56.423Z,3.20
2018-04-07T05:05:24.634Z,4.50
2018-04-07T05:07:52.855Z,4.77
2018-04-07T05:10:19.323Z,5.00
2018-04-07T05:12:45.890Z,4.00
2018-04-07T05:15:12.405Z,4.23
2018-04-07T05:17:38.912Z,4.30
2018-04-07T05:20:06.189Z,4.67
2018-04-07T05:22:32.708Z,3.93
2018-04-07T05:24:59.151Z,4.43
2018-04-07T05:27:25.632Z,4.33
2018-04-07T05:29:52.092Z,3.50
2018-04-07T05:32:18.836Z,3.60
2018-04-07T05:34:45.322Z,4.27
2018-04-07T05:37:12.912Z,3.60
2018-04-07T05:39:39.654Z,4.27
2018-04-07T05:42:06.966Z,5.20
2018-04-07T05:44:36.263Z,4.20
2018-04-07T05:47:04.423Z,4.63
2018-04-07T05:49:31.672Z,4.23
2018-04-07T05:51:58.145Z,4.30
2018-04-07T05:54:24.653Z,3.63
2018-04-07T05:56:51.130Z,4.80
2018-04-07T05:59:18.580Z,4.10
2018-04-07T06:01:45.211Z,3.90
2018-04-07T06:04:11.750Z,5.00
2018-04-07T06:06:38.441Z,4.50
2018-04-07T06:09:05.759Z,4.67
2018-04-07T06:11:32.329Z,4.60
2018-04-07T06:13:58.969Z,5.50
2018-04-07T06:16:25.447Z,4.80
2018-04-07T06:18:52.002Z,4.03
2018-04-07T06:21:19.272Z,4.73
2018-04-07T06:23:46.468Z,4.83
2018-04-07T06:26:12.942Z,5.13
2018-04-07T06:28:39.479Z,4.90
2018-04-07T06:31:06.414Z,5.23
2018-04-07T06:33:32.988Z,4.83
2018-04-07T06:36:00.307Z,4.23
2018-04-07T06:38:26.819Z,5.20
2018-04-07T06:40:53.282Z,4.50
2018-04-07T06:43:20.629Z,4.07
2018-04-07T06:45:48.371Z,5.33
2018-04-07T06:48:14.921Z,4.67
2018-04-07T06:50:41.439Z,4.63
2018-04-07T06:53:07.971Z,5.10
2018-04-07T06:55:34.507Z,4.27
2018-04-07T06:58:09.899Z,4.47
2018-04-07T07:00:38.254Z,5.57
2018-04-07T07:03:05.548Z,5.73
2018-04-07T07:05:32.166Z,5.13
2018-04-07T07:07:58.637Z,5.77
2018-04-07T07:10:25.939Z,6.10
2018-04-07T07:12:52.403Z,5.63
2018-04-07T07:15:18.968Z,6.40
2018-04-07T07:17:45.605Z,6.67
2018-04-07T07:20:12.094Z,6.43
2018-04-07T07:22:39.570Z,5.43
2018-04-07T07:25:06.187Z,6.60
2018-04-07T07:27:33.339Z,6.50
2018-04-07T07:29:59.986Z,6.23
2018-04-07T07:32:26.602Z,5.90
2018-04-07T07:34:53.459Z,6.93
2018-04-07T07:37:20.675Z,6.00
2018-04-07T07:39:47.485Z,6.80
2018-04-07T07:42:14.213Z,6.60
2018-04-07T07:44:41.494Z,7.10
2018-04-07T07:47:08.030Z,6.77
2018-04-07T07:49:35.311Z,5.67
2018-04-07T07:52:02.743Z,6.90
2018-04-07T07:54:29.728Z,6.20
2018-04-07T07:56:56.300Z,7.73
2018-04-07T07:59:23.117Z,7.17
2018-04-07T08:01:50.491Z,7.03
2018-04-07T08:04:17.276Z,7.50
2018-04-07T08:06:43.750Z,8.10
2018-04-07T08:09:10.306Z,6.50
2018-04-07T08:11:37.643Z,7.40
2018-04-07T08:14:05.246Z,7.43
2018-04-07T08:16:32.863Z,7.63
2018-04-07T08:19:00.169Z,7.53
2018-04-07T08:21:26.675Z,7.87
2018-04-07T08:23:53.243Z,6.50
2018-04-07T08:26:19.916Z,7.87
2018-04-07T08:28:46.544Z,6.23
2018-04-07T08:31:13.153Z,7.03
2018-04-07T08:33:40.365Z,7.00
2018-04-07T08:36:06.863Z,8.70
2018-04-07T08:38:33.779Z,7.23
2018-04-07T08:41:00.332Z,7.70
2018-04-07T08:43:26.855Z,8.40
2018-04-07T08:45:53.432Z,7.57
2018-04-07T08:48:19.967Z,7.63
2018-04-07T08:50:46.757Z,7.70
2018-04-07T08:53:13.926Z,7.13
2018-04-07T08:55:40.539Z,8.20
2018-04-07T08:58:07.882Z,8.83
2018-04-07T09:00:35.489Z,7.50
2018-04-07T09:03:03.069Z,8.20
2018-04-07T09:05:30.559Z,9.33
2018-04-07T09:07:57.886Z,7.63
2018-04-07T09:10:24.403Z,8.43
2018-04-07T09:12:50.967Z,8.33
2018-04-07T09:15:17.514Z,8.27
2018-04-07T09:17:44.061Z,8.77
2018-04-07T09:20:10.608Z,9.20
2018-04-07T09:22:37.355Z,8.70
2018-04-07T09:25:03.887Z,9.00
2018-04-07T09:27:31.302Z,8.13
2018-04-07T09:29:57.778Z,8.13
2018-04-07T09:32:25.043Z,8.80
2018-04-07T09:34:52.404Z,9.10
2018-04-07T09:37:19.288Z,8.90
2018-04-07T09:39:45.810Z,9.90
2018-04-07T09:42:12.750Z,9.70
2018-04-07T09:44:39.528Z,9.20
2018-04-07T09:47:06.181Z,8.67
2018-04-07T09:49:32.721Z,10.20
2018-04-07T09:52:00.015Z,9.97
2018-04-07T09:54:27.244Z,9.53
2018-04-07T09:56:54.050Z,9.97
2018-04-07T09:59:20.601Z,8.50
2018-04-07T10:01:47.226Z,8.43
2018-04-07T10:04:13.908Z,9.37
2018-04-07T10:06:40.590Z,10.23
2018-04-07T10:09:07.983Z,9.77
2018-04-07T10:11:36.027Z,9.60
2018-04-07T10:14:02.638Z,9.70
2018-04-07T10:16:29.366Z,9.83
2018-04-07T10:18:56.173Z,15.33
2018-04-07T10:21:22.659Z,9.30
2018-04-07T10:23:49.191Z,10.00
2018-04-07T10:26:15.906Z,9.67
2018-04-07T10:28:42.475Z,9.93
2018-04-07T10:31:08.947Z,10.70
2018-04-07T10:33:36.336Z,9.70
2018-04-07T10:36:02.969Z,9.80
2018-04-07T10:38:30.361Z,9.70
2018-04-07T10:40:56.867Z,10.80
2018-04-07T10:43:24.134Z,9.30
2018-04-07T10:45:50.738Z,10.50
2018-04-07T10:48:17.807Z,9.40
2018-04-07T10:50:45.139Z,10.83
2018-04-07T10:53:11.707Z,9.60
2018-04-07T10:55:38.203Z,12.67
2018-04-07T10:58:05.384Z,10.23
2018-04-07T11:00:31.875Z,10.47
2018-04-07T11:02:58.518Z,11.40
2018-04-07T11:05:24.993Z,9.27
2018-04-07T11:07:52.207Z,10.17
2018-04-07T11:10:19.567Z,12.27
2018-04-07T11:12:46.596Z,10.07
2018-04-07T11:15:13.652Z,9.47
2018-04-07T11:17:41.318Z,10.67
2018-04-07T11:20:07.893Z,9.87
2018-04-07T11:22:34.553Z,8.90
2018-04-07T11:25:01.010Z,9.90
2018-04-07T11:27:27.936Z,11.10
2018-04-07T11:29:54.478Z,11.20
2018-04-07T11:32:21.091Z,9.53
2018-04-07T11:34:48.501Z,10.90
2018-04-07T11:37:15.103Z,10.93
2018-04-07T11:39:42.050Z,11.13
2018-04-07T11:42:08.634Z,11.17
2018-04-07T11:44:35.327Z,11.87
2018-04-07T11:47:01.866Z,15.47
2018-04-07T11:49:28.422Z,10.63
2018-04-07T11:51:54.988Z,10.53
2018-04-07T11:54:21.575Z,10.37
2018-04-07T11:56:48.483Z,11.33
2018-04-07T11:59:15.127Z,10.63
2018-04-07T12:01:41.788Z,11.57
2018-04-07T12:04:08.404Z,10.43
2018-04-07T12:06:35.753Z,11.30
2018-04-07T12:09:02.435Z,10.47
2018-04-07T12:11:29.714Z,9.90
2018-04-07T12:13:56.963Z,9.30
2018-04-07T12:16:23.640Z,10.90
2018-04-07T12:18:51.565Z,11.67
2018-04-07T12:21:19.156Z,9.93
2018-04-07T12:23:45.821Z,11.37
2018-04-07T12:26:12.399Z,11.07
2018-04-07T12:28:38.962Z,11.93
2018-04-07T12:31:05.538Z,10.40
2018-04-07T12:33:32.859Z,9.63
2018-04-07T12:35:59.501Z,9.40
2018-04-07T12:38:26.168Z,9.53
2018-04-07T12:40:53.726Z,10.47
2018-04-07T12:43:20.330Z,11.00
2018-04-07T12:45:47.594Z,10.33
2018-04-07T12:48:14.188Z,10.50
2018-04-07T12:50:40.769Z,10.93
2018-04-07T12:53:07.285Z,7.57
2018-04-07T12:55:33.996Z,9.30
2018-04-07T12:58:00.482Z,9.60
2018-04-07T13:00:26.979Z,8.87
2018-04-07T13:02:53.451Z,9.90
2018-04-07T13:05:20.169Z,8.20
2018-04-07T13:07:46.705Z,8.60
2018-04-07T13:10:13.397Z,8.27
2018-04-07T13:12:39.996Z,9.20
2018-04-07T13:15:06.491Z,8.60
2018-04-07T13:17:33.108Z,8.70
2018-04-07T13:19:59.660Z,9.30
2018-04-07T13:22:26.170Z,9.10
2018-04-07T13:24:52.751Z,9.30
2018-04-07T13:27:20.200Z,8.37
2018-04-07T13:29:46.829Z,8.50
2018-04-07T13:32:13.424Z,8.30
2018-04-07T13:34:40.043Z,7.77
2018-04-07T13:37:06.688Z,8.40
2018-04-07T13:39:33.372Z,8.00
2018-04-07T13:42:00.606Z,8.80
2018-04-07T13:44:27.144Z,8.70
2018-04-07T13:46:54.338Z,7.87
2018-04-07T13:49:21.364Z,8.27
2018-04-07T13:51:47.912Z,8.53
2018-04-07T13:54:14.470Z,7.30
2018-04-07T13:56:41.049Z,8.20
2018-04-07T13:59:07.625Z,9.10
2018-04-07T14:01:34.134Z,9.07
2018-04-07T14:04:01.458Z,9.10
2018-04-07T14:06:28.098Z,7.93
2018-04-07T14:08:54.705Z,7.97
2018-04-07T14:11:21.471Z,9.90
2018-04-07T14:13:48.958Z,8.87
2018-04-07T14:16:16.311Z,7.30
2018-04-07T14:18:42.855Z,7.30
2018-04-07T14:21:09.884Z,6.90
2018-04-07T14:23:36.482Z,7.07
2018-04-07T14:26:04.470Z,6.40
2018-04-07T14:28:31.108Z,6.70
2018-04-07T14:30:57.644Z,6.40
2018-04-07T14:33:24.127Z,7.10
2018-04-07T14:35:50.738Z,6.30
2018-04-07T14:38:17.233Z,6.40
2018-04-07T14:40:43.767Z,7.67
2018-04-07T14:43:10.581Z,7.60
2018-04-07T14:45:37.119Z,8.03
2018-04-07T14:48:03.962Z,7.43
2018-04-07T14:50:30.530Z,7.30
2018-04-07T14:52:57.134Z,6.50
2018-04-07T14:55:23.945Z,7.27
2018-04-07T14:57:50.583Z,8.77
2018-04-07T15:00:17.230Z,7.43
2018-04-07T15:02:43.926Z,6.90
2018-04-07T15:05:10.526Z,6.87
2018-04-07T15:07:37.843Z,6.40
2018-04-07T15:10:06.056Z,6.90
2018-04-07T15:12:32.707Z,6.90
2018-04-07T15:14:59.555Z,6.30
2018-04-07T15:17:26.844Z,7.30
2018-04-07T15:19:54.114Z,6.97
2018-04-07T15:22:20.658Z,7.67
2018-04-07T15:24:47.218Z,7.17
2018-04-07T15:27:13.798Z,6.50
2018-04-07T15:29:41.366Z,5.60
2018-04-07T15:32:08.254Z,5.10
2018-04-07T15:34:35.213Z,7.23
2018-04-07T15:37:02.650Z,6.40
2018-04-07T15:39:29.984Z,7.63
2018-04-07T15:41:56.540Z,7.00
2018-04-07T15:44:23.096Z,6.50
2018-04-07T15:46:49.669Z,6.60
2018-04-07T15:49:17.220Z,6.73
2018-04-07T15:51:44.272Z,7.33
2018-04-07T15:54:10.897Z,6.90
2018-04-07T15:56:37.452Z,6.33
2018-04-07T15:59:04.069Z,6.97
2018-04-07T16:01:30.687Z,6.73
2018-04-07T16:03:57.203Z,6.17
2018-04-07T16:06:25.379Z,8.20
2018-04-07T16:08:52.887Z,5.47
2018-04-07T16:11:19.481Z,5.37
2018-04-07T16:13:47.060Z,5.70
2018-04-07T16:16:13.602Z,5.90
2018-04-07T16:18:40.241Z,6.10
2018-04-07T16:21:06.721Z,6.47
2018-04-07T16:23:35.128Z,6.37
2018-04-07T16:26:01.724Z,4.93
2018-04-07T16:28:28.373Z,4.70
2018-04-07T16:30:55.628Z,5.20
2018-04-07T16:33:22.213Z,5.07
2018-04-07T16:35:49.556Z,5.07
2018-04-07T16:38:16.548Z,4.80
2018-04-07T16:40:43.263Z,4.30
2018-04-07T16:43:09.777Z,4.93
2018-04-07T16:45:36.311Z,4.80
2018-04-07T16:48:03.990Z,3.90
2018-04-07T16:50:30.546Z,3.77
2018-04-07T16:52:57.402Z,4.13
2018-04-07T16:55:23.918Z,4.13
2018-04-07T16:57:50.536Z,3.60
2018-04-07T17:00:19.009Z,3.47
2018-04-07T17:02:45.624Z,4.10
2018-04-07T17:05:12.235Z,3.50
2018-04-07T17:07:38.910Z,3.30
2018-04-07T17:10:05.512Z,3.60
2018-04-07T17:12:32.842Z,3.03
2018-04-07T17:14:59.373Z,3.13
2018-04-07T17:17:25.975Z,2.40
2018-04-07T17:19:52.485Z,2.10
2018-04-07T17:22:19.728Z,3.30
2018-04-07T17:24:46.311Z,3.70
2018-04-07T17:27:13.460Z,1.90
2018-04-07T17:29:40.066Z,3.27
2018-04-07T17:32:06.774Z,2.20
2018-04-07T17:34:33.304Z,2.67
2018-04-07T17:36:59.887Z,3.50
2018-04-07T17:39:26.321Z,4.33
2018-04-07T17:41:52.895Z,3.50
2018-04-07T17:44:20.207Z,4.90
2018-04-07T17:46:46.728Z,4.20
2018-04-07T17:49:13.507Z,5.60
2018-04-07T17:51:40.837Z,7.23
2018-04-07T17:54:08.357Z,4.93
2018-04-07T17:56:34.972Z,4.27
2018-04-07T17:59:01.566Z,4.10
2018-04-07T18:01:28.673Z,3.93
2018-04-07T18:03:55.949Z,4.57
2018-04-07T18:06:22.522Z,6.90
2018-04-07T18:08:49.839Z,8.67
2018-04-07T18:11:16.350Z,6.67
2018-04-07T18:13:42.847Z,9.10
2018-04-07T18:16:09.406Z,5.67
2018-04-07T18:18:35.981Z,5.00
2018-04-07T18:21:02.552Z,5.10
2018-04-07T18:23:29.193Z,4.60
2018-04-07T18:25:56.550Z,5.53
2018-04-07T18:28:23.350Z,3.73
2018-04-07T18:30:50.794Z,5.70
2018-04-07T18:33:17.461Z,5.00
2018-04-07T18:35:44.218Z,5.60
2018-04-07T18:38:10.921Z,5.30
2018-04-07T18:40:37.572Z,5.17
2018-04-07T18:43:04.873Z,5.80
2018-04-07T18:45:31.680Z,5.40
2018-04-07T18:47:58.210Z,5.27
2018-04-07T18:50:24.848Z,4.77
2018-04-07T18:52:51.466Z,4.93
2018-04-07T18:55:18.702Z,4.13
2018-04-07T18:57:45.113Z,5.03
2018-04-07T19:00:11.566Z,8.17
2018-04-07T19:02:37.976Z,7.07
2018-04-07T19:05:04.573Z,5.07
2018-04-07T19:07:31.145Z,5.80
2018-04-07T19:09:57.758Z,6.27
2018-04-07T19:12:24.204Z,4.43
2018-04-07T19:14:50.594Z,5.63
2018-04-07T19:17:17.088Z,8.53
2018-04-07T19:19:43.507Z,8.60
2018-04-07T19:22:10.748Z,8.60
2018-04-07T19:24:37.210Z,11.10
2018-04-07T19:27:03.683Z,14.80
2018-04-07T19:29:32.060Z,15.00
2018-04-07T19:31:58.539Z,10.87
2018-04-07T19:34:25.029Z,14.20
2018-04-07T19:36:51.466Z,10.20
2018-04-07T19:39:17.889Z,9.10
2018-04-07T19:41:44.411Z,11.10
2018-04-07T19:44:10.863Z,9.13
2018-04-07T19:46:38.140Z,7.33
2018-04-07T19:49:04.744Z,8.30
2018-04-07T19:51:31.305Z,8.13
2018-04-07T19:53:57.823Z,4.87
2018-04-07T19:56:24.391Z,6.30
2018-04-07T19:58:50.894Z,5.57
2018-04-07T20:01:17.490Z,5.00
2018-04-07T20:03:44.030Z,6.10
2018-04-07T20:06:10.433Z,5.07
2018-04-07T20:08:37.604Z,6.03
2018-04-07T20:11:04.307Z,5.60
2018-04-07T20:13:31.465Z,5.40
2018-04-07T20:15:57.854Z,5.27
2018-04-07T20:18:25.145Z,5.37
2018-04-07T20:20:51.655Z,6.33
2018-04-07T20:23:18.078Z,6.90
2018-04-07T20:25:44.772Z,7.17
2018-04-07T20:28:11.327Z,5.07
2018-04-07T20:30:37.782Z,5.40
2018-04-07T20:33:04.974Z,4.13
2018-04-07T20:35:31.391Z,5.53
2018-04-07T20:37:57.998Z,4.90
2018-04-07T20:40:24.472Z,4.63
2018-04-07T20:42:51.026Z,4.30
2018-04-07T20:45:17.456Z,3.87
2018-04-07T20:47:43.918Z,5.07
2018-04-07T20:50:10.368Z,4.97
2018-04-07T20:52:36.860Z,3.47
2018-04-07T20:55:03.347Z,5.10
2018-04-07T20:57:29.786Z,4.77
2018-04-07T20:59:57.679Z,4.40
2018-04-07T21:02:24.945Z,4.63
2018-04-07T21:04:51.367Z,5.33
2018-04-07T21:07:17.799Z,5.10
2018-04-07T21:09:44.230Z,4.97
2018-04-07T21:12:10.668Z,4.80
2018-04-07T21:14:37.083Z,5.40
2018-04-07T21:17:03.566Z,4.30
2018-04-07T21:19:29.964Z,5.07
2018-04-07T21:21:56.372Z,4.10
2018-04-07T21:24:23.614Z,4.87
2018-04-07T21:26:50.107Z,4.70
2018-04-07T21:29:17.272Z,4.30
2018-04-07T21:31:44.074Z,4.83
2018-04-07T21:34:10.471Z,4.60
2018-04-07T21:36:37.658Z,4.83
2018-04-07T21:39:05.820Z,3.73
2018-04-07T21:41:32.241Z,3.70
2018-04-07T21:43:59.383Z,4.40
2018-04-07T21:46:26.563Z,4.17
2018-04-07T21:48:52.951Z,5.00
2018-04-07T21:51:19.455Z,4.33
2018-04-07T21:53:46.591Z,5.30
2018-04-07T21:56:13.086Z,4.63
2018-04-07T21:58:39.550Z,4.30
2018-04-07T22:01:07.502Z,4.37
2018-04-07T22:03:33.889Z,4.87
2018-04-07T22:06:01.060Z,5.10
2018-04-07T22:08:27.513Z,4.80
2018-04-07T22:10:54.029Z,5.07
2018-04-07T22:13:20.494Z,5.60
2018-04-07T22:15:46.968Z,5.07
2018-04-07T22:18:13.379Z,4.23
2018-04-07T22:20:39.825Z,5.20
2018-04-07T22:23:06.270Z,4.57
2018-04-07T22:25:32.742Z,5.10
2018-04-07T22:28:00.644Z,4.20
2018-04-07T22:30:27.209Z,4.30
2018-04-07T22:32:53.785Z,4.80
2018-04-07T22:35:20.247Z,5.10
2018-04-07T22:37:46.673Z,5.40
2018-04-07T22:40:13.085Z,5.90
2018-04-07T22:42:39.574Z,5.37
2018-04-07T22:45:06.704Z,5.40
2018-04-07T22:47:33.228Z,6.00
2018-04-07T22:49:59.638Z,5.63
2018-04-07T22:52:26.060Z,5.37
2018-04-07T22:54:53.269Z,5.33
2018-04-07T22:57:19.682Z,5.47
2018-04-07T22:59:46.847Z,5.63
2018-04-07T23:02:13.997Z,4.10
2018-04-07T23:04:40.496Z,5.10
2018-04-07T23:07:06.910Z,5.80
2018-04-07T23:09:33.319Z,5.40
2018-04-07T23:12:00.467Z,5.03
2018-04-07T23:14:27.704Z,6.70
2018-04-07T23:16:54.955Z,6.23
2018-04-07T23:19:21.366Z,7.30
2018-04-07T23:21:48.491Z,6.37
2018-04-07T23:24:15.692Z,6.20
2018-04-07T23:26:42.145Z,6.40
2018-04-07T23:29:08.552Z,6.30
2018-04-07T23:31:35.068Z,5.73
2018-04-07T23:34:01.469Z,6.57
2018-04-07T23:36:28.388Z,5.73
2018-04-07T23:38:55.617Z,6.40
2018-04-07T23:41:22.037Z,6.60
2018-04-07T23:43:48.411Z,7.00
2018-04-07T23:46:15.629Z,7.10
2018-04-07T23:48:42.106Z,6.40
2018-04-07T23:51:08.530Z,7.30
2018-04-07T23:53:34.962Z,7.60
2018-04-07T23:56:01.428Z,8.10
2018-04-07T23:58:27.806Z,6.60
